Pellville, Kentucky
Current Conditions -  °F | °C
As of 5:56 AM on Friday 24 Oct 2014 (Local Time) from KOWB Reporting Station
Overcast Overcast  
Wind Chill: 44°   Ceiling: 4200
Heat Index: 44°   Visibility: 7mi
Dew Point: 43°   Wind: 0mph
Humidity: 97%   Direction: NA
Pressure: 30.13"   Gusts: NA
Location:  37.75°N, 86.81°W
Report Text: KOWB 241056Z 00000KT 7SM BKN042 OVC110 07/06 A3013 RMK AO2 T00660061 SLP204
Loading
Personal Weather Stations






























Interactive Weather Map
Tropical Storm Tracking
New forecast layout! Learn more

10-Day Weather Forecast

Advertisements
Track Severe Weather on mobile